Time;durP1;ratioP1;P1;durP2;ratioP2;P2;SDS_P1;SDS_P2;PMS_P1;PMS_P2;Temp;Humidity;BMP_temperature;BMP_pressure;BME280_temperature;BME280_humidity;BME280_pressure;Samples;Min_cycle;Max_cycle;Signal;HPM_P1;HPM_P2
2023/09/17 00:00:22;;;;;;;7.80;7.00;;;17.60;99.90;;;;;;5193427;28;20493;-41
2023/09/17 00:02:53;;;;;;;8.57;6.33;;;17.60;99.90;;;;;;5194219;28;20180;-42
2023/09/17 00:05:23;;;;;;;8.70;7.50;;;17.50;99.90;;;;;;5195399;28;20219;-41
2023/09/17 00:07:54;;;;;;;8.03;6.53;;;17.50;99.90;;;;;;5193878;28;20246;-41
2023/09/17 00:10:24;;;;;;;16.93;7.70;;;17.50;99.90;;;;;;5197214;28;20192;-42
2023/09/17 00:12:55;;;;;;;8.03;7.17;;;17.40;99.90;;;;;;5194198;28;20187;-42
2023/09/17 00:15:26;;;;;;;7.80;6.73;;;17.40;99.90;;;;;;5198137;28;20224;-43
2023/09/17 00:17:57;;;;;;;7.70;6.93;;;17.40;99.90;;;;;;5198543;28;20203;-41
2023/09/17 00:20:27;;;;;;;10.30;6.70;;;17.40;99.90;;;;;;5199792;28;20191;-43
2023/09/17 00:22:59;;;;;;;11.80;7.20;;;17.40;99.90;;;;;;5200759;28;20192;-43
2023/09/17 00:25:30;;;;;;;8.03;7.23;;;17.30;99.90;;;;;;5203914;28;20196;-42
2023/09/17 00:28:01;;;;;;;7.73;7.00;;;17.30;99.90;;;;;;5192263;28;20437;-42
2023/09/17 00:30:31;;;;;;;11.90;7.60;;;17.30;99.90;;;;;;5198071;28;20430;-44
2023/09/17 00:33:02;;;;;;;7.67;6.93;;;17.30;99.90;;;;;;5195273;28;20193;-41
2023/09/17 00:35:33;;;;;;;10.67;6.90;;;17.30;99.90;;;;;;5194625;28;20207;-43
2023/09/17 00:38:04;;;;;;;7.40;6.53;;;17.30;99.90;;;;;;5198727;28;20219;-42
2023/09/17 00:40:37;;;;;;;7.33;6.63;;;17.30;99.90;;;;;;5197812;28;20687;-42
2023/09/17 00:43:08;;;;;;;6.83;6.17;;;17.20;99.90;;;;;;5196323;28;20188;-43
2023/09/17 00:45:42;;;;;;;10.90;6.60;;;17.20;99.90;;;;;;5198398;28;20457;-43
2023/09/17 00:48:13;;;;;;;9.80;6.57;;;17.10;99.90;;;;;;5195105;28;20943;-42
2023/09/17 00:50:44;;;;;;;9.03;6.10;;;17.10;99.90;;;;;;5201897;28;20427;-43
2023/09/17 00:53:16;;;;;;;11.33;6.37;;;17.10;99.90;;;;;;5179510;28;21440;-41
2023/09/17 00:55:47;;;;;;;14.37;8.17;;;17.10;99.90;;;;;;5195125;28;20228;-42
2023/09/17 00:58:18;;;;;;;11.00;7.73;;;17.10;99.90;;;;;;5202332;28;20869;-43
2023/09/17 01:00:49;;;;;;;6.53;5.93;;;17.10;99.90;;;;;;5201733;28;20438;-42
2023/09/17 01:03:20;;;;;;;7.07;6.37;;;17.10;99.90;;;;;;5169658;28;20252;-43
2023/09/17 01:05:52;;;;;;;6.70;6.10;;;17.00;99.90;;;;;;5204824;28;20423;-42
2023/09/17 01:08:24;;;;;;;15.20;8.47;;;17.00;99.90;;;;;;5199933;28;20493;-42
2023/09/17 01:10:57;;;;;;;11.30;7.67;;;17.00;99.90;;;;;;5189723;28;20438;-42
2023/09/17 01:13:28;;;;;;;9.07;6.97;;;16.90;99.90;;;;;;5203078;28;20950;-42
2023/09/17 01:15:59;;;;;;;10.50;8.80;;;16.90;99.90;;;;;;5203219;28;20447;-42
2023/09/17 01:18:29;;;;;;;13.87;7.00;;;16.90;99.90;;;;;;5198907;28;20212;-42
2023/09/17 01:21:17;;;;;;;9.43;7.20;;;16.80;99.90;;;;;;5199532;28;20437;-42
2023/09/17 01:24:13;;;;;;;12.10;8.50;;;16.80;99.90;;;;;;5201654;28;20219;-41
2023/09/17 01:26:55;;;;;;;9.37;7.83;;;16.80;99.90;;;;;;5203908;28;20499;-41
2023/09/17 01:29:32;;;;;;;10.30;8.77;;;16.80;99.90;;;;;;5203716;28;20457;-42
2023/09/17 01:32:04;;;;;;;15.30;8.33;;;16.80;99.90;;;;;;5200763;28;20469;-43
2023/09/17 01:34:41;;;;;;;10.07;7.27;;;16.70;99.90;;;;;;5201725;28;21389;-43
2023/09/17 01:37:32;;;;;;;11.43;8.40;;;16.70;99.90;;;;;;5201389;28;20451;-42
2023/09/17 01:40:07;;;;;;;11.27;8.10;;;16.70;99.90;;;;;;5201632;28;20454;-42
2023/09/17 01:42:40;;;;;;;10.13;8.17;;;16.70;99.90;;;;;;5198940;28;20464;-42
2023/09/17 01:45:13;;;;;;;8.30;7.50;;;16.70;99.90;;;;;;5197222;28;20461;-42
2023/09/17 01:47:47;;;;;;;9.70;8.70;;;16.60;99.90;;;;;;5196306;28;20448;-42
2023/09/17 01:50:23;;;;;;;11.80;8.10;;;16.60;99.90;;;;;;5194838;28;20500;-42
2023/09/17 01:52:54;;;;;;;16.77;8.90;;;16.60;99.90;;;;;;5195541;28;20469;-43
2023/09/17 01:55:26;;;;;;;10.33;7.90;;;16.60;99.90;;;;;;5198218;28;20482;-42
2023/09/17 01:57:56;;;;;;;9.00;8.10;;;16.60;99.90;;;;;;5198135;28;20509;-42
2023/09/17 02:00:28;;;;;;;14.80;8.00;;;16.60;99.90;;;;;;5200243;28;20939;-42
2023/09/17 02:02:59;;;;;;;9.83;7.90;;;16.60;99.90;;;;;;5201196;28;20251;-44
2023/09/17 02:05:29;;;;;;;8.93;7.87;;;16.50;99.90;;;;;;5197182;28;20490;-43
2023/09/17 02:08:00;;;;;;;12.50;6.80;;;16.50;99.90;;;;;;5195488;28;20200;-43
2023/09/17 02:10:31;;;;;;;6.73;6.10;;;16.50;99.90;;;;;;5192891;28;20183;-42
2023/09/17 02:13:02;;;;;;;10.93;8.30;;;16.40;99.90;;;;;;5191287;28;20200;-42
2023/09/17 02:15:33;;;;;;;10.87;7.87;;;16.40;99.90;;;;;;5191320;28;20195;-41
2023/09/17 02:18:05;;;;;;;7.77;7.00;;;16.40;99.90;;;;;;5195501;28;20481;-43
2023/09/17 02:20:39;;;;;;;6.73;5.90;;;16.40;99.90;;;;;;5209817;28;20300;-42
2023/09/17 02:23:10;;;;;;;9.50;8.20;;;16.30;99.90;;;;;;5192705;28;20591;-41
2023/09/17 02:25:41;;;;;;;11.53;6.90;;;16.30;99.90;;;;;;5176584;28;20480;-42
2023/09/17 02:28:11;;;;;;;11.37;8.00;;;16.30;99.90;;;;;;5192061;28;20206;-42
2023/09/17 02:30:42;;;;;;;9.43;7.70;;;16.20;99.90;;;;;;5196629;28;20192;-42
2023/09/17 02:33:12;;;;;;;10.33;8.73;;;16.20;99.90;;;;;;5194160;28;20661;-42
2023/09/17 02:35:43;;;;;;;11.57;8.03;;;16.20;99.90;;;;;;5179553;28;20235;-42
2023/09/17 02:38:14;;;;;;;10.17;8.80;;;16.20;99.90;;;;;;5200554;28;20892;-42
2023/09/17 02:40:44;;;;;;;8.10;7.30;;;16.10;99.90;;;;;;5199862;28;20203;-42
2023/09/17 02:43:15;;;;;;;10.80;7.90;;;16.10;99.90;;;;;;5199614;28;20196;-42
2023/09/17 02:45:45;;;;;;;8.47;6.87;;;16.20;99.90;;;;;;5198932;28;20468;-43
2023/09/17 02:48:16;;;;;;;10.87;6.90;;;16.20;99.90;;;;;;5197589;28;20246;-41
2023/09/17 02:50:47;;;;;;;7.13;6.50;;;16.20;99.90;;;;;;5200012;28;20193;-40
2023/09/17 02:53:18;;;;;;;9.30;8.20;;;16.10;99.90;;;;;;5197079;28;20197;-42
2023/09/17 02:55:48;;;;;;;10.50;7.70;;;16.10;99.90;;;;;;5196814;28;20228;-44
2023/09/17 02:58:19;;;;;;;10.97;8.53;;;16.10;99.90;;;;;;5197846;28;20528;-42
2023/09/17 03:00:50;;;;;;;13.40;8.87;;;16.00;99.90;;;;;;5194535;28;20214;-42
2023/09/17 03:03:20;;;;;;;9.53;8.60;;;16.00;99.90;;;;;;5193585;28;20223;-43
2023/09/17 03:05:53;;;;;;;13.30;10.10;;;16.00;99.90;;;;;;5195061;28;20517;-42
2023/09/17 03:08:24;;;;;;;15.43;8.33;;;16.00;99.90;;;;;;5194362;28;20203;-41
2023/09/17 03:10:58;;;;;;;12.87;9.40;;;16.00;99.90;;;;;;5196391;28;20446;-42
2023/09/17 03:13:29;;;;;;;11.00;9.60;;;16.00;99.90;;;;;;5198920;28;20191;-43
2023/09/17 03:16:00;;;;;;;9.93;8.83;;;16.00;99.90;;;;;;5198026;28;20438;-41
2023/09/17 03:18:30;;;;;;;10.63;9.53;;;15.90;99.90;;;;;;5195087;28;20227;-42
2023/09/17 03:21:06;;;;;;;12.50;8.80;;;16.00;99.90;;;;;;5199029;28;20191;-42
2023/09/17 03:23:37;;;;;;;13.20;8.53;;;16.00;99.90;;;;;;5202154;28;20287;-41
2023/09/17 03:26:09;;;;;;;10.47;9.33;;;16.00;99.90;;;;;;5199408;28;20504;-44
2023/09/17 03:28:40;;;;;;;10.53;8.40;;;16.00;99.90;;;;;;5196626;28;20439;-42
2023/09/17 03:31:11;;;;;;;9.83;8.97;;;16.00;99.90;;;;;;5198945;28;20989;-42
2023/09/17 03:33:41;;;;;;;13.17;9.10;;;15.90;99.90;;;;;;5199876;28;20212;-43
2023/09/17 03:36:12;;;;;;;13.77;8.90;;;15.90;99.90;;;;;;5201097;28;20280;-41
2023/09/17 03:38:43;;;;;;;10.17;9.17;;;15.90;99.90;;;;;;5202354;28;20216;-42
2023/09/17 03:41:14;;;;;;;11.20;8.50;;;15.90;99.90;;;;;;5202455;28;20516;-42
2023/09/17 03:43:45;;;;;;;13.87;8.30;;;15.90;99.90;;;;;;5184197;28;20212;-42
2023/09/17 03:46:15;;;;;;;12.67;10.00;;;15.90;99.90;;;;;;5201767;28;20187;-43
2023/09/17 03:48:46;;;;;;;14.10;9.93;;;15.90;99.90;;;;;;5202570;28;20438;-42
2023/09/17 03:51:17;;;;;;;11.17;9.73;;;15.90;99.90;;;;;;5202568;28;20202;-42
2023/09/17 03:53:47;;;;;;;10.23;8.50;;;15.90;99.90;;;;;;5202284;28;20220;-42
2023/09/17 03:56:18;;;;;;;11.10;9.20;;;15.90;99.90;;;;;;5200596;28;20199;-42
2023/09/17 03:58:49;;;;;;;9.57;8.57;;;15.90;99.90;;;;;;5194754;28;20212;-43
2023/09/17 04:01:20;;;;;;;12.87;10.13;;;15.80;99.90;;;;;;5190846;28;20195;-43
2023/09/17 04:03:51;;;;;;;11.63;9.43;;;15.80;99.90;;;;;;5195805;28;20211;-43
2023/09/17 04:06:21;;;;;;;10.40;9.27;;;15.80;99.90;;;;;;5201603;28;20439;-42
2023/09/17 04:08:52;;;;;;;12.10;9.87;;;15.80;99.90;;;;;;5199558;28;20215;-43
2023/09/17 04:11:23;;;;;;;11.30;9.60;;;15.70;99.90;;;;;;5197160;28;20248;-42
2023/09/17 04:13:54;;;;;;;17.10;8.80;;;15.70;99.90;;;;;;5199393;28;20211;-43
2023/09/17 04:16:24;;;;;;;10.00;8.67;;;15.60;99.90;;;;;;5200367;28;20434;-43
2023/09/17 04:18:55;;;;;;;10.07;9.03;;;15.60;99.90;;;;;;5200700;28;20243;-43
2023/09/17 04:21:26;;;;;;;9.67;8.60;;;15.60;99.90;;;;;;5199259;28;20695;-43
2023/09/17 04:23:57;;;;;;;9.83;8.80;;;15.50;99.90;;;;;;5179308;28;20467;-42
2023/09/17 04:26:29;;;;;;;10.03;8.33;;;15.50;99.90;;;;;;5194121;28;20254;-42
2023/09/17 04:29:00;;;;;;;10.40;8.40;;;15.50;99.90;;;;;;5174088;28;20196;-42
2023/09/17 04:31:30;;;;;;;12.23;8.90;;;15.50;99.90;;;;;;5192000;28;20438;-42
2023/09/17 04:34:01;;;;;;;15.37;10.17;;;15.50;99.90;;;;;;5190400;28;20465;-43
2023/09/17 04:36:32;;;;;;;13.70;9.37;;;15.50;99.90;;;;;;5193840;28;20725;-42
2023/09/17 04:39:03;;;;;;;9.87;8.80;;;15.40;99.90;;;;;;5191874;28;20340;-43
2023/09/17 04:41:33;;;;;;;12.37;10.37;;;15.40;99.90;;;;;;5191258;28;20184;-42
2023/09/17 04:44:07;;;;;;;14.63;10.13;;;15.40;99.90;;;;;;5191845;28;20469;-42
2023/09/17 04:46:43;;;;;;;13.80;9.77;;;15.30;99.90;;;;;;5193317;28;20528;-42
2023/09/17 04:49:13;;;;;;;11.80;9.40;;;15.30;99.90;;;;;;5195468;28;20521;-42
2023/09/17 04:51:44;;;;;;;9.90;8.90;;;15.40;99.90;;;;;;5189343;28;20938;-42
2023/09/17 04:54:15;;;;;;;11.03;7.93;;;15.40;99.90;;;;;;5215351;22;20251;-45
2023/09/17 04:56:45;;;;;;;11.63;9.83;;;15.40;99.90;;;;;;5201203;28;20230;-44
2023/09/17 04:59:16;;;;;;;9.60;8.70;;;15.40;99.90;;;;;;5202708;28;20212;-44
2023/09/17 05:01:48;;;;;;;12.47;9.37;;;15.40;99.90;;;;;;5208877;28;20183;-44
2023/09/17 05:04:19;;;;;;;14.80;9.20;;;15.50;99.90;;;;;;5203091;28;20571;-44
2023/09/17 05:06:50;;;;;;;12.03;9.07;;;15.50;99.90;;;;;;5208915;28;20456;-44
2023/09/17 05:09:22;;;;;;;12.97;10.60;;;15.50;99.90;;;;;;5198305;28;20183;-44
2023/09/17 05:11:53;;;;;;;14.70;10.40;;;15.50;99.90;;;;;;5221660;28;20441;-44
2023/09/17 05:14:23;;;;;;;14.57;9.93;;;15.60;99.90;;;;;;5209134;28;20461;-44
2023/09/17 05:16:54;;;;;;;12.80;9.37;;;15.60;99.90;;;;;;5193373;28;20228;-44
2023/09/17 05:19:25;;;;;;;10.80;9.50;;;15.70;99.90;;;;;;5203937;28;20230;-44
2023/09/17 05:21:56;;;;;;;12.87;9.90;;;15.80;99.90;;;;;;5208236;28;20237;-44
2023/09/17 05:24:26;;;;;;;13.13;9.10;;;15.90;99.90;;;;;;5205695;28;20208;-44
2023/09/17 05:26:57;;;;;;;12.60;9.33;;;15.90;99.90;;;;;;5206150;28;20447;-44
2023/09/17 05:29:28;;;;;;;11.33;9.63;;;16.10;99.90;;;;;;5207525;28;20282;-44
2023/09/17 05:31:58;;;;;;;12.60;9.50;;;16.20;99.90;;;;;;5202718;28;21146;-44
2023/09/17 05:34:29;;;;;;;12.30;8.77;;;16.40;99.90;;;;;;5203654;28;20210;-51
2023/09/17 05:37:00;;;;;;;11.77;9.40;;;16.50;99.90;;;;;;5203715;28;20785;-44
2023/09/17 05:39:30;;;;;;;10.20;9.00;;;16.70;99.90;;;;;;5205311;28;20251;-44
2023/09/17 05:42:01;;;;;;;9.53;8.53;;;16.80;99.90;;;;;;5206371;28;20267;-45
2023/09/17 05:44:32;;;;;;;11.20;9.87;;;17.00;99.90;;;;;;5185477;28;20207;-45
2023/09/17 05:47:03;;;;;;;14.97;8.83;;;17.10;99.90;;;;;;5207653;28;20188;-44
2023/09/17 05:49:33;;;;;;;11.87;9.47;;;17.50;99.90;;;;;;5207265;28;20187;-46
2023/09/17 05:52:04;;;;;;;13.90;9.10;;;18.10;99.90;;;;;;5209996;28;20191;-44
2023/09/17 05:54:35;;;;;;;10.67;9.07;;;18.40;99.90;;;;;;5212032;28;20908;-45
2023/09/17 05:57:05;;;;;;;14.50;8.80;;;18.60;99.90;;;;;;5209210;28;20184;-44
2023/09/17 05:59:36;;;;;;;8.77;7.90;;;19.50;99.90;;;;;;5209166;28;20219;-44
2023/09/17 06:02:09;;;;;;;10.27;7.73;;;21.20;99.90;;;;;;5203379;28;20171;-46
2023/09/17 06:04:40;;;;;;;8.07;6.97;;;23.10;99.90;;;;;;5203755;28;20833;-45
2023/09/17 06:07:11;;;;;;;9.57;7.93;;;25.10;99.90;;;;;;5206619;28;20694;-44
2023/09/17 06:09:41;;;;;;;12.90;7.00;;;26.80;96.60;;;;;;5207512;28;20191;-44
2023/09/17 06:12:12;;;;;;;12.03;6.37;;;28.40;90.30;;;;;;5206533;28;20439;-44
2023/09/17 06:14:43;;;;;;;8.50;6.10;;;29.90;76.90;;;;;;5206833;28;20208;-46
2023/09/17 06:17:14;;;;;;;6.80;6.20;;;31.10;66.60;;;;;;5210327;28;20504;-44
2023/09/17 06:19:44;;;;;;;6.67;6.07;;;31.50;62.10;;;;;;5207916;28;20226;-45
2023/09/17 06:22:15;;;;;;;9.10;6.10;;;32.20;57.90;;;;;;5208787;28;20176;-46
2023/09/17 06:24:46;;;;;;;12.30;6.37;;;31.50;56.10;;;;;;5206694;28;20207;-44
2023/09/17 06:27:16;;;;;;;6.83;6.13;;;30.50;57.60;;;;;;5210531;28;20191;-45
2023/09/17 06:29:47;;;;;;;7.00;6.30;;;29.90;58.80;;;;;;5209993;28;20199;-44
2023/09/17 06:32:18;;;;;;;8.60;6.20;;;29.70;59.40;;;;;;5211609;28;20179;-45
2023/09/17 06:34:49;;;;;;;7.23;6.50;;;29.80;59.60;;;;;;5193508;28;20239;-45
2023/09/17 06:37:19;;;;;;;12.90;7.23;;;30.30;58.40;;;;;;5209023;28;20202;-45
2023/09/17 06:39:50;;;;;;;9.27;6.90;;;30.70;56.00;;;;;;5209058;28;20179;-45
2023/09/17 06:42:20;;;;;;;9.73;6.73;;;30.80;55.70;;;;;;5190733;28;20710;-45
2023/09/17 06:44:51;;;;;;;13.00;7.03;;;31.40;54.50;;;;;;5210243;28;20203;-45
2023/09/17 06:47:22;;;;;;;8.40;7.60;;;31.50;53.60;;;;;;5210192;28;20205;-46
2023/09/17 06:49:53;;;;;;;6.03;5.43;;;30.60;54.40;;;;;;5208943;28;20647;-45
2023/09/17 06:52:23;;;;;;;9.50;6.73;;;30.00;56.30;;;;;;5208294;28;20187;-45
2023/09/17 06:54:54;;;;;;;10.03;6.23;;;30.20;56.20;;;;;;5197719;28;20207;-44
2023/09/17 06:57:25;;;;;;;6.60;5.90;;;30.30;56.00;;;;;;5209011;28;20659;-44
2023/09/17 06:59:55;;;;;;;9.57;6.50;;;30.30;55.80;;;;;;5204665;28;20183;-45
2023/09/17 07:02:26;;;;;;;5.97;5.33;;;30.30;55.90;;;;;;5205207;28;20179;-46
2023/09/17 07:05:00;;;;;;;9.00;6.20;;;30.40;56.40;;;;;;5209915;28;20345;-46
2023/09/17 07:07:30;;;;;;;10.00;6.33;;;30.40;55.60;;;;;;5208124;28;20184;-44
2023/09/17 07:10:04;;;;;;;14.17;6.67;;;30.60;55.30;;;;;;5207134;28;20438;-48
2023/09/17 07:12:37;;;;;;;11.50;5.60;;;31.20;54.30;;;;;;5205582;28;20723;-48
2023/09/17 07:15:10;;;;;;;6.97;6.10;;;32.00;53.70;;;;;;5210509;28;20509;-45
2023/09/17 07:17:40;;;;;;;9.07;6.57;;;32.50;52.30;;;;;;5207608;28;20560;-44
2023/09/17 07:20:14;;;;;;;10.90;6.30;;;33.30;49.90;;;;;;5210057;28;20472;-44
2023/09/17 07:22:48;;;;;;;11.50;6.40;;;33.60;49.00;;;;;;5206771;28;20184;-46
2023/09/17 07:25:18;;;;;;;7.83;7.03;;;33.70;48.70;;;;;;5205150;28;20468;-47
2023/09/17 07:27:49;;;;;;;10.90;6.17;;;33.60;48.00;;;;;;5203707;28;20929;-44
2023/09/17 07:30:20;;;;;;;8.50;6.33;;;33.60;48.50;;;;;;5205371;28;20187;-45
2023/09/17 07:32:51;;;;;;;8.70;6.67;;;33.30;48.50;;;;;;5203506;28;20274;-45
2023/09/17 07:35:21;;;;;;;9.40;5.70;;;33.70;47.90;;;;;;5203717;28;20206;-45
2023/09/17 07:37:52;;;;;;;6.23;4.93;;;34.50;46.50;;;;;;5203458;28;20286;-44
2023/09/17 07:40:23;;;;;;;6.67;6.17;;;35.10;45.80;;;;;;5201458;28;20199;-45
2023/09/17 07:42:53;;;;;;;8.70;6.17;;;35.50;44.90;;;;;;5203320;28;20218;-45
2023/09/17 07:45:24;;;;;;;6.43;5.80;;;35.50;44.40;;;;;;5204311;28;20217;-45
2023/09/17 07:47:55;;;;;;;10.63;5.97;;;35.10;44.50;;;;;;5205123;28;20192;-46
2023/09/17 07:50:26;;;;;;;7.10;6.60;;;35.40;44.40;;;;;;5206071;28;20278;-45
2023/09/17 07:52:56;;;;;;;16.60;8.10;;;35.90;42.60;;;;;;5207306;28;20675;-47
2023/09/17 07:55:29;;;;;;;9.90;6.20;;;36.40;42.70;;;;;;5204031;28;20575;-45
2023/09/17 07:58:00;;;;;;;6.00;5.30;;;36.70;42.10;;;;;;5204798;28;20222;-46
2023/09/17 08:00:31;;;;;;;5.70;5.20;;;36.30;42.20;;;;;;5207502;28;20206;-44
2023/09/17 08:03:02;;;;;;;8.20;7.40;;;35.70;43.10;;;;;;5193704;28;20643;-45
2023/09/17 08:05:35;;;;;;;6.03;5.50;;;34.70;44.10;;;;;;5204350;28;20208;-45
2023/09/17 08:08:07;;;;;;;7.83;5.67;;;33.40;46.50;;;;;;5202400;28;20186;-44
2023/09/17 08:10:37;;;;;;;6.60;4.87;;;32.50;48.10;;;;;;5205176;28;20183;-45
2023/09/17 08:13:08;;;;;;;7.67;6.80;;;31.60;49.90;;;;;;5199569;28;20198;-44
2023/09/17 08:15:39;;;;;;;7.13;6.43;;;31.00;51.50;;;;;;5204930;28;20218;-45
2023/09/17 08:18:10;;;;;;;10.13;6.63;;;30.10;52.10;;;;;;5207098;28;20222;-44
2023/09/17 08:20:40;;;;;;;6.80;6.17;;;28.80;54.50;;;;;;5206647;28;20652;-46
2023/09/17 08:23:11;;;;;;;6.43;5.50;;;28.00;56.70;;;;;;5190500;28;20209;-45
2023/09/17 08:25:42;;;;;;;7.60;5.90;;;27.50;57.90;;;;;;5206873;28;20191;-44
2023/09/17 08:28:15;;;;;;;8.20;7.00;;;27.20;58.70;;;;;;5199275;28;20250;-46
2023/09/17 08:30:46;;;;;;;7.97;5.50;;;26.80;59.40;;;;;;5204399;28;20590;-45
2023/09/17 08:33:16;;;;;;;9.37;7.27;;;26.60;60.90;;;;;;5204958;28;20581;-45
2023/09/17 08:35:47;;;;;;;12.33;7.27;;;26.20;61.90;;;;;;5206719;28;20231;-46
2023/09/17 08:38:18;;;;;;;10.87;7.80;;;25.50;64.30;;;;;;5205768;28;20217;-45
2023/09/17 08:40:50;;;;;;;7.53;6.70;;;24.90;66.90;;;;;;5205494;28;20194;-45
2023/09/17 08:43:22;;;;;;;7.97;7.17;;;24.30;68.20;;;;;;5208814;28;20865;-45
2023/09/17 08:45:54;;;;;;;7.80;7.00;;;24.00;69.90;;;;;;5204346;28;20467;-45
2023/09/17 08:48:24;;;;;;;9.70;7.90;;;23.70;71.60;;;;;;5206664;28;20462;-45
2023/09/17 08:50:57;;;;;;;9.07;6.90;;;23.40;73.00;;;;;;5205571;28;21040;-45
2023/09/17 08:53:39;;;;;;;6.53;5.80;;;23.30;75.20;;;;;;5210323;28;20246;-45
2023/09/17 08:56:16;;;;;;;11.50;6.70;;;23.50;76.60;;;;;;5204581;28;20489;-46
2023/09/17 08:58:53;;;;;;;8.30;6.53;;;23.60;77.60;;;;;;5204213;28;20556;-45
2023/09/17 09:01:26;;;;;;;8.50;6.80;;;23.70;78.40;;;;;;5205288;28;20516;-45
2023/09/17 09:04:01;;;;;;;7.87;6.00;;;23.90;78.60;;;;;;5202628;28;20455;-45
2023/09/17 09:06:33;;;;;;;7.80;6.13;;;24.20;78.10;;;;;;5201790;28;20445;-46
2023/09/17 09:09:07;;;;;;;7.17;6.53;;;24.50;77.50;;;;;;5203561;28;20454;-46
2023/09/17 09:11:38;;;;;;;8.30;6.50;;;24.50;76.00;;;;;;5204046;28;20450;-47
2023/09/17 09:14:09;;;;;;;6.37;5.77;;;24.40;76.80;;;;;;5201114;28;20454;-45
2023/09/17 09:16:39;;;;;;;8.33;5.80;;;24.10;78.40;;;;;;5200803;28;20514;-46
2023/09/17 09:19:11;;;;;;;10.53;7.27;;;23.90;78.90;;;;;;5198990;28;21019;-46
2023/09/17 09:21:42;;;;;;;8.67;6.83;;;23.80;79.80;;;;;;5201217;28;20195;-46
2023/09/17 09:24:12;;;;;;;9.00;5.30;;;23.70;80.60;;;;;;5189770;28;20457;-46
2023/09/17 09:26:44;;;;;;;7.03;6.43;;;23.70;81.50;;;;;;5205143;28;20624;-44
2023/09/17 09:29:14;;;;;;;7.87;6.47;;;23.80;81.90;;;;;;5204878;28;20184;-45
2023/09/17 09:31:46;;;;;;;5.57;5.10;;;23.80;81.30;;;;;;5206247;28;20434;-45
2023/09/17 09:34:18;;;;;;;7.53;6.30;;;24.00;81.70;;;;;;5207116;28;20212;-46
2023/09/17 09:36:51;;;;;;;7.57;6.37;;;24.10;81.20;;;;;;5205146;28;20457;-46
2023/09/17 09:39:22;;;;;;;9.70;5.80;;;24.10;81.50;;;;;;5208337;28;20473;-45
2023/09/17 09:41:53;;;;;;;8.40;5.40;;;24.20;82.00;;;;;;5206876;28;20438;-46
2023/09/17 09:44:25;;;;;;;8.97;7.00;;;24.40;82.00;;;;;;5208121;28;20458;-45
2023/09/17 09:46:57;;;;;;;7.53;6.37;;;24.60;80.50;;;;;;5206774;28;20176;-45
2023/09/17 09:49:28;;;;;;;8.27;6.77;;;24.60;79.50;;;;;;5200560;28;20430;-45
2023/09/17 09:51:59;;;;;;;7.70;6.17;;;24.50;80.90;;;;;;5199962;28;20431;-45
2023/09/17 09:54:30;;;;;;;6.30;5.27;;;24.50;80.60;;;;;;5204187;28;20473;-46
2023/09/17 09:57:05;;;;;;;14.73;6.07;;;24.70;80.70;;;;;;5204985;28;20191;-46
2023/09/17 09:59:36;;;;;;;6.33;5.73;;;24.80;80.20;;;;;;5200608;28;20242;-44
2023/09/17 10:02:13;;;;;;;7.47;6.50;;;24.80;79.10;;;;;;5204839;28;20461;-44
2023/09/17 10:04:45;;;;;;;9.83;5.53;;;24.80;79.30;;;;;;5203759;28;20466;-45
2023/09/17 10:07:16;;;;;;;6.43;5.33;;;24.80;79.50;;;;;;5207884;28;20411;-44
2023/09/17 10:09:48;;;;;;;5.53;5.03;;;25.00;79.40;;;;;;5206023;28;20492;-45
2023/09/17 10:12:20;;;;;;;8.43;6.47;;;25.10;79.30;;;;;;5202495;28;20478;-45
2023/09/17 10:14:50;;;;;;;5.43;4.90;;;25.30;78.90;;;;;;5203323;28;20482;-45
2023/09/17 10:17:22;;;;;;;4.77;4.43;;;25.40;79.10;;;;;;5205529;28;20565;-44
2023/09/17 10:19:54;;;;;;;5.30;4.87;;;25.50;77.60;;;;;;5204042;28;20259;-44
2023/09/17 10:22:25;;;;;;;4.33;3.70;;;25.50;76.10;;;;;;5203463;28;20496;-45
2023/09/17 10:24:56;;;;;;;5.27;4.40;;;25.60;75.60;;;;;;5203064;28;20454;-45
2023/09/17 10:27:27;;;;;;;4.53;4.17;;;25.60;74.30;;;;;;5197469;28;20481;-45
2023/09/17 10:29:58;;;;;;;4.43;4.13;;;25.60;71.50;;;;;;5201561;28;20185;-46
2023/09/17 10:32:31;;;;;;;4.87;4.47;;;25.50;72.00;;;;;;5201910;28;20234;-44
2023/09/17 10:35:03;;;;;;;6.60;4.67;;;25.30;72.70;;;;;;5185925;28;20457;-46
2023/09/17 10:37:36;;;;;;;4.93;4.53;;;25.20;72.70;;;;;;5182778;28;20433;-44
2023/09/17 10:40:10;;;;;;;5.67;5.13;;;25.10;73.70;;;;;;5200053;28;20408;-44
2023/09/17 10:42:41;;;;;;;5.80;5.30;;;25.10;74.30;;;;;;5199585;28;20438;-47
2023/09/17 10:45:13;;;;;;;5.20;4.80;;;25.10;74.70;;;;;;5200770;28;20489;-46
2023/09/17 10:47:47;;;;;;;6.60;5.90;;;25.10;75.60;;;;;;5200012;28;20461;-43
2023/09/17 10:50:19;;;;;;;4.23;3.93;;;25.10;75.00;;;;;;5198825;28;20437;-45
2023/09/17 10:52:49;;;;;;;6.33;4.50;;;25.20;75.40;;;;;;5198587;28;20431;-46
2023/09/17 10:55:22;;;;;;;4.87;4.33;;;25.30;75.00;;;;;;5199096;28;20481;-46
2023/09/17 10:58:09;;;;;;;4.33;4.03;;;25.40;73.90;;;;;;5215402;28;20369;-44
2023/09/17 11:00:42;;;;;;;5.90;5.10;;;25.50;73.30;;;;;;5198993;28;20427;-45
2023/09/17 11:03:17;;;;;;;15.60;4.83;;;25.60;72.40;;;;;;5202150;28;20800;-45
2023/09/17 11:05:50;;;;;;;4.80;4.40;;;25.60;71.70;;;;;;5206628;28;20449;-44
2023/09/17 11:08:21;;;;;;;4.70;4.20;;;25.70;71.60;;;;;;5206988;28;20946;-44
2023/09/17 11:10:52;;;;;;;5.10;3.93;;;25.80;71.60;;;;;;5206841;28;20897;-45
2023/09/17 11:13:23;;;;;;;3.80;3.50;;;25.90;70.70;;;;;;5208471;28;20501;-45
2023/09/17 11:15:56;;;;;;;4.07;3.77;;;26.00;70.90;;;;;;5208234;28;20203;-46
2023/09/17 11:18:26;;;;;;;3.97;3.67;;;26.00;66.70;;;;;;5209217;28;20513;-45
2023/09/17 11:21:06;;;;;;;3.73;3.53;;;25.90;66.40;;;;;;5201473;28;20923;-46
2023/09/17 11:23:46;;;;;;;4.30;3.90;;;25.90;67.20;;;;;;5201014;28;20215;-45
2023/09/17 11:26:24;;;;;;;7.87;5.43;;;25.90;67.00;;;;;;5197881;28;20468;-47
2023/09/17 11:28:57;;;;;;;6.70;5.60;;;26.00;66.30;;;;;;5202909;28;20430;-45
2023/09/17 11:31:28;;;;;;;4.03;3.73;;;26.00;66.40;;;;;;5206315;28;20442;-46
2023/09/17 11:34:08;;;;;;;4.87;4.37;;;26.00;67.20;;;;;;5208281;28;21080;-46
2023/09/17 11:36:40;;;;;;;3.97;3.67;;;26.00;65.40;;;;;;5205267;28;20433;-46
2023/09/17 11:39:15;;;;;;;3.70;3.50;;;26.10;65.90;;;;;;5199832;28;20465;-48
2023/09/17 11:41:53;;;;;;;6.27;5.07;;;26.10;66.20;;;;;;5205629;28;20564;-47
2023/09/17 11:44:24;;;;;;;3.97;3.77;;;26.20;65.40;;;;;;5208242;28;20616;-46
2023/09/17 11:46:55;;;;;;;3.60;3.40;;;26.30;63.80;;;;;;5212429;28;20913;-45
2023/09/17 11:49:28;;;;;;;4.17;3.87;;;26.20;62.70;;;;;;5209334;28;20191;-46
2023/09/17 11:51:59;;;;;;;4.50;4.00;;;26.10;63.00;;;;;;5205936;28;20443;-46
2023/09/17 11:54:34;;;;;;;4.80;4.40;;;26.20;64.20;;;;;;5208865;28;20487;-48
2023/09/17 11:57:04;;;;;;;3.77;3.50;;;26.20;64.40;;;;;;5218109;28;20505;-45
2023/09/17 11:59:38;;;;;;;17.10;10.53;;;26.30;64.30;;;;;;5206769;28;20954;-46
2023/09/17 12:02:09;;;;;;;7.30;4.63;;;26.40;63.00;;;;;;5207622;28;20175;-46
2023/09/17 12:04:44;;;;;;;3.23;3.03;;;26.40;62.80;;;;;;5210424;28;20605;-46
2023/09/17 12:07:15;;;;;;;4.47;4.27;;;26.50;62.70;;;;;;5212135;28;20273;-46
2023/09/17 12:12:32;;;;;;;4.60;3.93;;;26.50;60.60;;;;;;5206457;28;20551;-44
2023/09/17 12:15:09;;;;;;;3.73;2.90;;;26.50;60.90;;;;;;5213147;28;20519;-47
2023/09/17 12:17:41;;;;;;;5.63;2.97;;;26.50;61.80;;;;;;5206596;28;20433;-46
2023/09/17 12:20:40;;;;;;;3.40;3.20;;;26.50;62.00;;;;;;5204269;28;20465;-45
2023/09/17 12:23:16;;;;;;;3.50;3.23;;;26.30;60.10;;;;;;5179509;28;20801;-46
2023/09/17 12:25:47;;;;;;;3.67;3.40;;;26.30;60.70;;;;;;5212148;28;20442;-47
2023/09/17 12:28:28;;;;;;;4.00;3.73;;;26.20;61.70;;;;;;5210766;28;20427;-46
2023/09/17 12:30:59;;;;;;;4.87;4.37;;;26.20;61.30;;;;;;5185708;28;20191;-45
2023/09/17 12:33:30;;;;;;;4.50;3.67;;;26.20;62.00;;;;;;5212153;28;20430;-45
2023/09/17 12:36:00;;;;;;;4.57;4.17;;;26.20;62.70;;;;;;5210109;28;20196;-45
2023/09/17 12:38:31;;;;;;;3.90;3.60;;;26.20;62.40;;;;;;5210259;28;20481;-45
2023/09/17 12:41:02;;;;;;;4.60;3.03;;;26.30;62.40;;;;;;5209336;28;20182;-45
2023/09/17 12:43:33;;;;;;;3.40;3.20;;;26.30;63.50;;;;;;5212165;28;20533;-46
2023/09/17 12:46:06;;;;;;;3.70;3.40;;;26.40;62.40;;;;;;5204461;28;20208;-44
2023/09/17 12:48:37;;;;;;;4.00;3.60;;;26.50;62.20;;;;;;5203634;28;20176;-46
2023/09/17 12:51:08;;;;;;;3.47;3.27;;;26.60;61.80;;;;;;5206701;28;20518;-46
2023/09/17 12:53:39;;;;;;;3.67;3.43;;;26.60;60.20;;;;;;5219102;28;20211;-46
2023/09/17 12:56:10;;;;;;;4.27;3.97;;;26.50;60.20;;;;;;5201442;28;20270;-46
2023/09/17 12:58:41;;;;;;;3.40;3.10;;;26.50;60.00;;;;;;5200479;28;20291;-46
2023/09/17 13:01:13;;;;;;;3.27;3.17;;;26.50;60.40;;;;;;5214621;28;20513;-47
2023/09/17 13:03:51;;;;;;;3.87;3.63;;;26.50;60.30;;;;;;5200094;28;20188;-46
2023/09/17 13:06:24;;;;;;;4.60;2.80;;;26.70;59.80;;;;;;5204145;28;20521;-45
2023/09/17 13:08:55;;;;;;;3.83;3.40;;;26.90;58.50;;;;;;5193277;28;20449;-46